Time;durP1;ratioP1;P1;durP2;ratioP2;P2;SDS_P1;SDS_P2;PMS_P1;PMS_P2;Temp;Humidity;BMP_temperature;BMP_pressure;BME280_temperature;BME280_humidity;BME280_pressure;Samples;Min_cycle;Max_cycle;Signal;HPM_P1;HPM_P2
2022/10/03 00:00:13;;;;;;;0.20;0.20;;;10.40;99.90;;;;;;5064358;28;20441;-79
2022/10/03 00:02:48;;;;;;;0.20;0.20;;;10.40;99.90;;;;;;5066086;28;21020;-79
2022/10/03 00:05:32;;;;;;;0.20;0.20;;;10.40;99.90;;;;;;5059767;28;20454;-79
2022/10/03 00:08:03;;;;;;;0.20;0.20;;;10.40;99.90;;;;;;5054091;28;20440;-79
2022/10/03 00:10:44;;;;;;;0.20;0.20;;;10.30;99.90;;;;;;5064965;28;20503;-79
2022/10/03 00:13:27;;;;;;;0.20;0.20;;;10.40;99.90;;;;;;5063642;28;20458;-79
2022/10/03 00:16:12;;;;;;;0.20;0.20;;;10.40;99.90;;;;;;5087938;28;20478;-79
2022/10/03 00:19:15;;;;;;;0.20;0.20;;;10.40;99.90;;;;;;5070305;28;20510;-80
2022/10/03 00:21:56;;;;;;;0.20;0.20;;;10.40;99.90;;;;;;5076102;28;20469;-81
2022/10/03 00:24:38;;;;;;;0.20;0.20;;;10.30;99.90;;;;;;5064175;28;20845;-79
2022/10/03 00:27:14;;;;;;;0.20;0.20;;;10.40;99.90;;;;;;5074761;28;20475;-80
2022/10/03 00:30:00;;;;;;;0.20;0.20;;;10.30;99.90;;;;;;5086676;28;23202;-79
2022/10/03 00:32:42;;;;;;;0.20;0.20;;;10.30;99.90;;;;;;5081834;28;20436;-80
2022/10/03 00:35:20;;;;;;;0.10;0.10;;;10.20;99.90;;;;;;5091049;28;20868;-79
2022/10/03 00:38:02;;;;;;;0.20;0.20;;;10.20;99.90;;;;;;5090704;28;20450;-80
2022/10/03 00:40:34;;;;;;;0.20;0.20;;;10.20;99.90;;;;;;5083881;28;20846;-80
2022/10/03 00:43:10;;;;;;;0.20;0.20;;;10.20;99.90;;;;;;5077042;28;20472;-80
2022/10/03 00:45:36;;;;;;;0.20;0.20;;;10.20;99.90;;;;;;5070802;28;20461;-81
2022/10/03 00:48:23;;;;;;;0.20;0.20;;;10.20;99.90;;;;;;5088102;28;20455;-79
2022/10/03 00:51:02;;;;;;;0.20;0.20;;;10.20;99.90;;;;;;5084895;28;20169;-80
2022/10/03 00:53:37;;;;;;;0.20;0.20;;;10.10;99.90;;;;;;5072632;28;20467;-80
2022/10/03 00:56:17;;;;;;;0.20;0.20;;;10.20;99.90;;;;;;5069159;28;20443;-81
2022/10/03 00:59:14;;;;;;;0.20;0.20;;;10.20;99.90;;;;;;5074751;28;20954;-80
2022/10/03 01:01:47;;;;;;;0.20;0.20;;;10.10;99.90;;;;;;5068844;28;20963;-80
2022/10/03 01:04:53;;;;;;;0.20;0.20;;;10.10;99.90;;;;;;5089073;28;20481;-80
2022/10/03 01:07:41;;;;;;;0.20;0.20;;;10.10;99.90;;;;;;5080692;28;20449;-79
2022/10/03 01:10:32;;;;;;;0.20;0.20;;;10.10;99.90;;;;;;5070686;28;20970;-79
2022/10/03 01:13:31;;;;;;;0.20;0.20;;;10.10;99.90;;;;;;5066125;28;20435;-79
2022/10/03 01:16:13;;;;;;;0.20;0.20;;;10.00;99.90;;;;;;5082444;28;20515;-79
2022/10/03 01:18:47;;;;;;;0.20;0.20;;;9.90;99.90;;;;;;5082860;28;20475;-80
2022/10/03 01:21:51;;;;;;;0.20;0.20;;;9.90;99.90;;;;;;5086371;28;20450;-78
2022/10/03 01:24:50;;;;;;;0.20;0.20;;;9.80;99.90;;;;;;5019916;28;20571;-79
2022/10/03 01:30:51;;;;;;;0.20;0.20;;;9.90;99.90;;;;;;5083385;28;20503;-78
2022/10/03 01:33:27;;;;;;;0.20;0.20;;;9.90;99.90;;;;;;5065106;28;20958;-78
2022/10/03 01:35:55;;;;;;;0.20;0.20;;;9.90;99.90;;;;;;5088618;28;20926;-80
2022/10/03 01:38:31;;;;;;;0.13;0.13;;;9.90;99.90;;;;;;5083573;28;20479;-81
2022/10/03 01:41:01;;;;;;;0.20;0.20;;;9.90;99.90;;;;;;5087514;28;20484;-80
2022/10/03 01:43:48;;;;;;;0.20;0.20;;;9.90;99.90;;;;;;5067403;28;20537;-80
2022/10/03 01:46:20;;;;;;;0.20;0.20;;;9.90;99.90;;;;;;5084309;28;20453;-81
2022/10/03 01:49:00;;;;;;;0.20;0.20;;;9.90;99.90;;;;;;5081482;28;20534;-80
2022/10/03 01:51:32;;;;;;;0.20;0.20;;;9.90;99.90;;;;;;5077996;28;20916;-80
2022/10/03 01:54:23;;;;;;;0.20;0.20;;;9.90;99.90;;;;;;5084659;28;20431;-80
2022/10/03 01:57:30;;;;;;;0.20;0.20;;;9.90;99.90;;;;;;5076143;28;20461;-80
2022/10/03 02:00:12;;;;;;;0.20;0.20;;;9.80;99.90;;;;;;5062360;28;21399;-80
2022/10/03 02:02:44;;;;;;;0.20;0.20;;;9.80;99.90;;;;;;5060540;28;20439;-80
2022/10/03 02:05:35;;;;;;;0.20;0.20;;;9.80;99.90;;;;;;5083295;28;20582;-80
2022/10/03 02:08:32;;;;;;;0.20;0.20;;;9.80;99.90;;;;;;5088758;28;20477;-80
2022/10/03 02:11:06;;;;;;;0.20;0.20;;;9.80;99.90;;;;;;5088272;28;21861;-79
2022/10/03 02:13:35;;;;;;;0.10;0.10;;;9.80;99.90;;;;;;5054923;28;20573;-80
2022/10/03 02:16:13;;;;;;;0.20;0.20;;;9.70;99.90;;;;;;5081206;28;20455;-80
2022/10/03 02:18:47;;;;;;;0.20;0.20;;;9.70;99.90;;;;;;5070136;28;20434;-80
2022/10/03 02:21:22;;;;;;;0.20;0.20;;;9.80;99.90;;;;;;5067464;28;20477;-80
2022/10/03 02:24:02;;;;;;;0.20;0.20;;;9.80;99.90;;;;;;5085009;28;20510;-80
2022/10/03 02:26:50;;;;;;;0.20;0.20;;;9.80;99.90;;;;;;5061741;28;20503;-80
2022/10/03 02:29:43;;;;;;;0.20;0.20;;;9.70;99.90;;;;;;5026508;28;20489;-80
2022/10/03 02:32:35;;;;;;;0.20;0.20;;;9.80;99.90;;;;;;5078160;28;20443;-79
2022/10/03 02:35:38;;;;;;;0.20;0.20;;;9.80;99.90;;;;;;5062419;28;20444;-79
2022/10/03 02:38:28;;;;;;;0.20;0.20;;;9.80;99.90;;;;;;5077702;28;20542;-79
2022/10/03 02:41:31;;;;;;;0.20;0.20;;;9.70;99.90;;;;;;5070703;28;20448;-80
2022/10/03 02:44:39;;;;;;;0.20;0.20;;;9.80;99.90;;;;;;5082499;28;20470;-80
2022/10/03 02:47:41;;;;;;;0.20;0.20;;;9.80;99.90;;;;;;5070617;28;20983;-80
2022/10/03 02:50:25;;;;;;;0.20;0.20;;;9.70;99.90;;;;;;5087783;28;20558;-80
2022/10/03 02:53:00;;;;;;;0.20;0.20;;;9.70;99.90;;;;;;5085594;28;20449;-80
2022/10/03 02:55:40;;;;;;;0.20;0.20;;;9.70;99.90;;;;;;5065613;28;20442;-80
2022/10/03 02:58:39;;;;;;;0.20;0.20;;;9.70;99.90;;;;;;5081014;28;20957;-80
2022/10/03 03:01:23;;;;;;;0.20;0.20;;;9.70;99.90;;;;;;5087494;28;20950;-80
2022/10/03 03:04:00;;;;;;;0.20;0.20;;;9.70;99.90;;;;;;5082224;28;20831;-79
2022/10/03 03:06:51;;;;;;;0.20;0.20;;;9.80;99.90;;;;;;5069684;28;20466;-80
2022/10/03 03:09:43;;;;;;;0.20;0.20;;;9.70;99.90;;;;;;5082009;28;20480;-79
2022/10/03 03:12:28;;;;;;;0.20;0.20;;;9.70;99.90;;;;;;5077182;28;20439;-80
2022/10/03 03:15:31;;;;;;;0.20;0.20;;;9.60;99.90;;;;;;5085444;28;20471;-80
2022/10/03 03:18:23;;;;;;;0.20;0.20;;;9.70;99.90;;;;;;5068381;28;22442;-80
2022/10/03 03:21:45;;;;;;;0.20;0.20;;;9.70;99.90;;;;;;5088692;28;20496;-80
2022/10/03 03:24:36;;;;;;;0.20;0.20;;;9.70;99.90;;;;;;4963735;28;20503;-80
2022/10/03 03:27:31;;;;;;;0.20;0.20;;;9.70;99.90;;;;;;4982599;28;20448;-80
2022/10/03 03:30:14;;;;;;;0.20;0.20;;;9.60;99.90;;;;;;5082514;28;20451;-79
2022/10/03 03:33:07;;;;;;;0.20;0.20;;;9.60;99.90;;;;;;5065932;28;20505;-80
2022/10/03 03:35:52;;;;;;;0.20;0.20;;;9.50;99.90;;;;;;5077693;28;20454;-80
2022/10/03 03:38:52;;;;;;;0.20;0.20;;;9.50;99.90;;;;;;5055379;28;20451;-80
2022/10/03 03:41:29;;;;;;;0.20;0.20;;;9.40;99.90;;;;;;5059498;28;20447;-80
2022/10/03 03:44:05;;;;;;;0.20;0.20;;;9.30;99.90;;;;;;5082197;28;20592;-79
2022/10/03 03:47:13;;;;;;;0.20;0.20;;;9.40;99.90;;;;;;5066863;28;20434;-80
2022/10/03 03:50:26;;;;;;;0.20;0.20;;;9.40;99.90;;;;;;5068274;28;20455;-79
2022/10/03 03:53:20;;;;;;;0.20;0.20;;;9.40;99.90;;;;;;5066187;28;20457;-79
2022/10/03 03:56:08;;;;;;;0.20;0.20;;;9.30;99.90;;;;;;5087856;28;20954;-79
2022/10/03 03:58:52;;;;;;;0.20;0.20;;;9.30;99.90;;;;;;5065998;28;20438;-79
2022/10/03 04:01:49;;;;;;;0.20;0.20;;;9.20;99.90;;;;;;5081211;28;20438;-81
2022/10/03 04:04:27;;;;;;;0.20;0.20;;;9.10;99.90;;;;;;5083202;28;20980;-80
2022/10/03 04:07:02;;;;;;;0.20;0.20;;;9.20;99.90;;;;;;5084313;28;20478;-79
2022/10/03 04:09:46;;;;;;;0.20;0.20;;;9.30;99.90;;;;;;5081011;28;20434;-79
2022/10/03 04:12:30;;;;;;;0.20;0.20;;;9.30;99.90;;;;;;5063155;28;20436;-79
2022/10/03 04:15:20;;;;;;;0.20;0.20;;;9.20;99.90;;;;;;5066175;28;20475;-79
2022/10/03 04:21:24;;;;;;;0.20;0.20;;;9.00;99.90;;;;;;5087969;28;20443;-79
2022/10/03 04:24:20;;;;;;;0.20;0.20;;;9.10;99.90;;;;;;5081397;28;20485;-79
2022/10/03 04:26:52;;;;;;;0.20;0.20;;;9.10;99.90;;;;;;5076955;28;20440;-79
2022/10/03 04:29:54;;;;;;;0.20;0.20;;;9.10;99.90;;;;;;5085526;28;20435;-79
2022/10/03 04:32:40;;;;;;;0.20;0.20;;;9.10;99.90;;;;;;5080804;28;20529;-79
2022/10/03 04:35:23;;;;;;;0.20;0.20;;;9.00;99.90;;;;;;5075208;28;20530;-79
2022/10/03 04:37:58;;;;;;;0.20;0.20;;;8.90;99.90;;;;;;5060420;28;20550;-79
2022/10/03 04:40:42;;;;;;;0.20;0.20;;;9.10;99.90;;;;;;5079574;28;20519;-79
2022/10/03 04:43:42;;;;;;;0.20;0.20;;;9.10;99.90;;;;;;5085376;28;20499;-79
2022/10/03 04:46:38;;;;;;;0.20;0.20;;;9.20;99.90;;;;;;5063052;28;20451;-79
2022/10/03 04:49:17;;;;;;;0.20;0.20;;;9.10;99.90;;;;;;5067478;28;20520;-79
2022/10/03 04:52:07;;;;;;;0.20;0.20;;;9.10;99.90;;;;;;5062729;28;20449;-79
2022/10/03 04:54:51;;;;;;;0.20;0.20;;;9.10;99.90;;;;;;5082500;28;20835;-79
2022/10/03 04:57:42;;;;;;;0.20;0.20;;;9.20;99.90;;;;;;5078072;28;20451;-79
2022/10/03 05:00:33;;;;;;;0.20;0.20;;;9.20;99.90;;;;;;5080989;28;20443;-78
2022/10/03 05:03:27;;;;;;;0.20;0.20;;;9.20;99.90;;;;;;5072873;28;20572;-79
2022/10/03 05:05:59;;;;;;;0.20;0.20;;;9.20;99.90;;;;;;5085048;28;20508;-78
2022/10/03 05:08:48;;;;;;;0.20;0.20;;;9.20;99.90;;;;;;5072336;28;20453;-79
2022/10/03 05:11:44;;;;;;;0.20;0.20;;;9.30;99.90;;;;;;5070284;28;20440;-78
2022/10/03 05:14:19;;;;;;;0.20;0.20;;;9.40;99.90;;;;;;5084755;28;20467;-78
2022/10/03 05:16:54;;;;;;;0.20;0.20;;;9.40;99.90;;;;;;5088353;28;20529;-78
2022/10/03 05:19:39;;;;;;;0.20;0.20;;;9.40;99.90;;;;;;5061001;28;20491;-78
2022/10/03 05:22:11;;;;;;;0.20;0.20;;;9.40;99.90;;;;;;5091291;28;20451;-78
2022/10/03 05:25:00;;;;;;;0.20;0.20;;;9.40;99.90;;;;;;5065347;28;20486;-79
2022/10/03 05:27:38;;;;;;;0.20;0.20;;;9.40;99.90;;;;;;5083234;28;20508;-79
2022/10/03 05:30:33;;;;;;;0.20;0.20;;;9.50;99.90;;;;;;5078005;28;20467;-81
2022/10/03 05:33:12;;;;;;;0.20;0.20;;;9.40;99.90;;;;;;5081935;28;20540;-79
2022/10/03 05:35:58;;;;;;;0.20;0.20;;;9.50;99.90;;;;;;5078421;28;20438;-78
2022/10/03 05:38:43;;;;;;;0.20;0.20;;;9.50;99.90;;;;;;5057225;28;20972;-78
2022/10/03 05:41:10;;;;;;;0.20;0.20;;;9.50;99.90;;;;;;5071278;28;20450;-77
2022/10/03 05:44:16;;;;;;;0.20;0.20;;;9.60;99.90;;;;;;5082434;28;20475;-78
2022/10/03 05:46:50;;;;;;;0.20;0.20;;;9.70;99.90;;;;;;5074366;28;20490;-78
2022/10/03 05:49:28;;;;;;;0.20;0.20;;;9.70;99.90;;;;;;5087335;28;20809;-77
2022/10/03 05:51:57;;;;;;;0.20;0.20;;;9.80;99.90;;;;;;5085824;28;20507;-78
2022/10/03 05:54:47;;;;;;;0.20;0.20;;;9.70;99.90;;;;;;5090127;28;20458;-79
2022/10/03 05:57:42;;;;;;;0.20;0.20;;;9.70;99.90;;;;;;5092490;28;20414;-78
2022/10/03 06:00:23;;;;;;;0.20;0.20;;;9.80;99.90;;;;;;5086698;28;20467;-77
2022/10/03 06:03:12;;;;;;;0.20;0.20;;;9.80;99.90;;;;;;5087187;28;20452;-78
2022/10/03 06:06:02;;;;;;;0.20;0.20;;;9.80;99.90;;;;;;5088593;28;20470;-79
2022/10/03 06:08:59;;;;;;;0.20;0.20;;;9.80;99.90;;;;;;5085797;28;20443;-79
2022/10/03 06:11:42;;;;;;;0.20;0.20;;;9.80;99.90;;;;;;5091783;28;20470;-78
2022/10/03 06:14:34;;;;;;;0.20;0.20;;;9.80;99.90;;;;;;5069983;28;20500;-78
2022/10/03 06:17:17;;;;;;;0.20;0.20;;;9.80;99.90;;;;;;5086081;28;20457;-79
2022/10/03 06:20:13;;;;;;;0.20;0.20;;;9.90;99.90;;;;;;5082386;28;20446;-78
2022/10/03 06:23:11;;;;;;;0.20;0.20;;;9.90;99.90;;;;;;5084773;28;20439;-77
2022/10/03 06:25:59;;;;;;;0.10;0.10;;;10.00;99.90;;;;;;5073440;28;20447;-79
2022/10/03 06:28:34;;;;;;;0.20;0.20;;;10.00;99.90;;;;;;5086331;28;20465;-78
2022/10/03 06:31:20;;;;;;;0.20;0.20;;;10.10;99.90;;;;;;5086676;28;20442;-78
2022/10/03 06:34:24;;;;;;;0.20;0.20;;;10.10;99.90;;;;;;5068836;28;20860;-78
2022/10/03 06:37:04;;;;;;;0.20;0.20;;;10.20;99.90;;;;;;5091825;28;20443;-79
2022/10/03 06:40:07;;;;;;;0.20;0.20;;;10.20;99.90;;;;;;5067348;28;20492;-79
2022/10/03 06:43:07;;;;;;;0.20;0.20;;;10.30;99.90;;;;;;5093716;28;20447;-79
2022/10/03 06:45:35;;;;;;;0.20;0.20;;;10.40;99.90;;;;;;5062211;28;20470;-79
2022/10/03 06:48:38;;;;;;;0.20;0.20;;;10.50;99.90;;;;;;5096909;28;20436;-79
2022/10/03 06:51:23;;;;;;;0.20;0.20;;;10.60;99.90;;;;;;5085428;28;20506;-79
2022/10/03 06:54:22;;;;;;;0.20;0.20;;;10.70;99.90;;;;;;5056737;28;20439;-79
2022/10/03 06:57:26;;;;;;;0.20;0.20;;;10.80;99.90;;;;;;5084080;28;20440;-79
2022/10/03 07:00:02;;;;;;;0.20;0.20;;;10.90;99.90;;;;;;5052481;28;20453;-80
2022/10/03 07:02:39;;;;;;;0.20;0.20;;;11.00;99.90;;;;;;5067618;28;20910;-79
2022/10/03 07:05:21;;;;;;;0.10;0.10;;;11.20;99.90;;;;;;5083505;28;20478;-81
2022/10/03 07:08:15;;;;;;;0.10;0.10;;;11.30;99.90;;;;;;5085308;28;20492;-80
2022/10/03 07:11:16;;;;;;;0.10;0.10;;;11.40;99.90;;;;;;5087587;28;20467;-79
2022/10/03 07:14:11;;;;;;;0.20;0.20;;;11.60;99.90;;;;;;5067438;28;20442;-78
2022/10/03 07:17:08;;;;;;;0.10;0.10;;;11.70;99.90;;;;;;5066901;28;20835;-79
2022/10/03 07:19:41;;;;;;;0.10;0.10;;;11.80;99.90;;;;;;5013168;28;20439;-80
2022/10/03 07:22:47;;;;;;;0.10;0.10;;;11.80;99.90;;;;;;5067580;28;20989;-81
2022/10/03 07:25:28;;;;;;;0.10;0.10;;;11.90;99.90;;;;;;5065717;28;20528;-80
2022/10/03 07:28:20;;;;;;;0.10;0.10;;;12.10;99.90;;;;;;5076530;28;20446;-81
2022/10/03 07:31:13;;;;;;;0.10;0.10;;;12.20;99.90;;;;;;5085075;28;20459;-81
2022/10/03 07:34:04;;;;;;;0.10;0.10;;;12.30;99.90;;;;;;5067906;28;20442;-81
2022/10/03 07:39:52;;;;;;;0.10;0.10;;;12.50;99.90;;;;;;5090177;28;20476;-81
2022/10/03 07:42:38;;;;;;;0.10;0.10;;;12.60;99.90;;;;;;5085297;28;20434;-81
2022/10/03 07:45:19;;;;;;;0.10;0.10;;;12.60;99.90;;;;;;5069398;28;20475;-80
2022/10/03 07:48:27;;;;;;;0.10;0.10;;;12.80;99.90;;;;;;5081234;28;20508;-81
2022/10/03 07:51:12;;;;;;;0.10;0.10;;;13.00;99.90;;;;;;5069167;28;20446;-81
2022/10/03 07:54:09;;;;;;;0.10;0.10;;;13.10;99.90;;;;;;5088648;28;20447;-81
2022/10/03 07:56:53;;;;;;;0.10;0.10;;;13.30;99.90;;;;;;5091890;28;20438;-81
2022/10/03 07:59:39;;;;;;;0.10;0.10;;;13.30;99.90;;;;;;5069476;28;20449;-81
2022/10/03 08:02:25;;;;;;;0.10;0.10;;;13.50;99.90;;;;;;5083660;28;20487;-80
2022/10/03 08:05:17;;;;;;;0.10;0.10;;;13.60;99.90;;;;;;5071747;28;21007;-81
2022/10/03 08:08:04;;;;;;;0.10;0.10;;;13.70;99.90;;;;;;5058909;28;20966;-81
2022/10/03 08:11:07;;;;;;;0.10;0.10;;;13.70;99.90;;;;;;5066757;28;20530;-81
2022/10/03 08:13:56;;;;;;;0.10;0.10;;;13.60;99.90;;;;;;5070138;28;21345;-80
2022/10/03 08:16:41;;;;;;;0.10;0.10;;;13.60;99.90;;;;;;5043817;28;20536;-82
2022/10/03 08:19:31;;;;;;;0.10;0.10;;;13.60;99.90;;;;;;5039389;28;20444;-81
2022/10/03 08:22:12;;;;;;;0.20;0.20;;;13.50;99.90;;;;;;5044901;28;20564;-81
2022/10/03 08:25:06;;;;;;;0.10;0.10;;;13.40;99.90;;;;;;5045587;28;20468;-81
2022/10/03 08:28:24;;;;;;;0.10;0.10;;;13.60;99.90;;;;;;5046480;28;20437;-81
2022/10/03 08:31:15;;;;;;;0.10;0.10;;;13.70;99.90;;;;;;5031135;28;20437;-81
2022/10/03 08:33:49;;;;;;;0.10;0.10;;;13.70;99.90;;;;;;5030637;28;20426;-81
2022/10/03 08:36:29;;;;;;;0.10;0.10;;;13.70;99.90;;;;;;5036070;28;20441;-81
2022/10/03 08:39:21;;;;;;;0.10;0.10;;;13.70;99.90;;;;;;5032615;28;20671;-81
2022/10/03 08:42:02;;;;;;;0.10;0.10;;;13.70;99.90;;;;;;5035135;28;20441;-80
2022/10/03 08:44:44;;;;;;;0.10;0.10;;;13.70;99.90;;;;;;5050192;28;20950;-81
2022/10/03 08:47:37;;;;;;;0.10;0.10;;;13.80;99.90;;;;;;5048257;28;20498;-81
2022/10/03 08:50:21;;;;;;;0.10;0.10;;;14.00;99.90;;;;;;5050817;28;20449;-81
2022/10/03 08:53:05;;;;;;;0.10;0.10;;;14.30;99.90;;;;;;5047686;28;20452;-82
2022/10/03 08:55:54;;;;;;;0.10;0.10;;;14.20;99.90;;;;;;5044233;28;20444;-81
2022/10/03 08:58:33;;;;;;;0.10;0.10;;;14.60;99.90;;;;;;5048035;28;20531;-82
2022/10/03 09:01:17;;;;;;;0.10;0.10;;;14.80;99.90;;;;;;5047624;28;20569;-82
2022/10/03 09:04:13;;;;;;;0.10;0.10;;;15.30;99.90;;;;;;5038555;28;20826;-82
2022/10/03 09:07:00;;;;;;;0.10;0.10;;;15.50;99.90;;;;;;5047441;28;20433;-83
2022/10/03 09:09:56;;;;;;;0.10;0.10;;;15.30;99.90;;;;;;5046785;28;20445;-82
2022/10/03 09:12:53;;;;;;;0.10;0.10;;;15.30;99.90;;;;;;5043089;28;20468;-82
2022/10/03 09:15:32;;;;;;;0.10;0.10;;;15.40;99.90;;;;;;5077122;28;20514;-82
2022/10/03 09:18:06;;;;;;;0.10;0.10;;;15.20;99.90;;;;;;5083215;28;20963;-82
2022/10/03 09:20:52;;;;;;;0.10;0.10;;;15.30;99.90;;;;;;5101786;28;20435;-83
2022/10/03 09:23:49;;;;;;;0.10;0.10;;;15.70;99.90;;;;;;5087455;28;20899;-84
2022/10/03 09:26:32;;;;;;;0.10;0.10;;;15.90;99.90;;;;;;5089206;28;21030;-83
2022/10/03 09:29:16;;;;;;;0.10;0.10;;;15.90;99.90;;;;;;5101454;28;20443;-83
2022/10/03 09:32:40;;;;;;;0.10;0.10;;;16.50;99.90;;;;;;5089009;28;20527;-83
2022/10/03 09:35:27;;;;;;;0.10;0.10;;;16.30;99.90;;;;;;5073590;28;20954;-83
2022/10/03 09:38:11;;;;;;;0.10;0.10;;;16.60;99.90;;;;;;5069630;28;20442;-82
2022/10/03 09:40:53;;;;;;;0.10;0.10;;;16.90;99.90;;;;;;5069316;28;20474;-84
2022/10/03 09:43:38;;;;;;;0.10;0.10;;;17.10;99.90;;;;;;5086635;28;20455;-83
2022/10/03 09:46:26;;;;;;;0.10;0.10;;;16.60;99.90;;;;;;5073720;28;20450;-82
2022/10/03 09:49:18;;;;;;;0.10;0.10;;;16.40;99.90;;;;;;5087751;28;20504;-82
2022/10/03 09:52:08;;;;;;;0.10;0.10;;;16.20;99.90;;;;;;5067216;28;20458;-83
2022/10/03 09:54:57;;;;;;;0.10;0.10;;;16.30;99.90;;;;;;5074423;28;20478;-82
2022/10/03 09:57:50;;;;;;;0.10;0.10;;;16.50;99.90;;;;;;5072004;28;20451;-84
2022/10/03 10:00:21;;;;;;;0.10;0.10;;;16.60;99.90;;;;;;5098313;28;20454;-84
2022/10/03 10:03:05;;;;;;;0.10;0.10;;;16.60;99.90;;;;;;5095933;28;20511;-83
2022/10/03 10:06:08;;;;;;;0.10;0.10;;;16.50;99.90;;;;;;5095336;28;20483;-82
2022/10/03 10:09:01;;;;;;;0.10;0.10;;;17.10;99.90;;;;;;5086661;28;24018;-83
2022/10/03 10:11:50;;;;;;;0.10;0.10;;;17.40;99.90;;;;;;5074370;28;20967;-83
2022/10/03 10:14:42;;;;;;;0.10;0.10;;;17.20;99.90;;;;;;5085151;28;20994;-82
2022/10/03 10:18:00;;;;;;;0.10;0.10;;;16.90;99.90;;;;;;5084837;28;20451;-85
2022/10/03 10:20:59;;;;;;;0.10;0.10;;;16.90;99.90;;;;;;5090943;28;20446;-84
2022/10/03 10:24:04;;;;;;;0.10;0.10;;;16.90;99.90;;;;;;5060465;28;20436;-84
2022/10/03 10:26:52;;;;;;;0.10;0.10;;;16.60;99.90;;;;;;5000734;28;20530;-84
2022/10/03 10:29:49;;;;;;;0.10;0.10;;;16.80;99.90;;;;;;5075081;28;20796;-83
2022/10/03 10:32:52;;;;;;;0.10;0.10;;;17.50;99.90;;;;;;5062905;28;20478;-84
2022/10/03 10:35:30;;;;;;;0.10;0.00;;;18.90;99.90;;;;;;5086343;28;20470;-83
2022/10/03 10:38:17;;;;;;;0.10;0.00;;;19.00;99.90;;;;;;5084837;28;20443;-83
2022/10/03 10:41:07;;;;;;;0.10;0.00;;;19.00;99.90;;;;;;5069883;28;20446;-85
2022/10/03 10:43:58;;;;;;;0.00;0.00;;;18.70;99.90;;;;;;5088705;28;20526;-87
2022/10/03 10:47:01;;;;;;;0.10;0.10;;;18.10;99.90;;;;;;5090121;28;20548;-84
2022/10/03 10:49:56;;;;;;;0.10;0.10;;;17.70;99.90;;;;;;5070929;28;20438;-84
2022/10/03 10:52:59;;;;;;;0.10;0.00;;;17.50;99.90;;;;;;5072126;28;20453;-85
2022/10/03 10:55:43;;;;;;;0.10;0.00;;;17.80;99.90;;;;;;5071662;28;20424;-84
2022/10/03 10:58:56;;;;;;;0.10;0.10;;;18.70;99.90;;;;;;5066768;28;20466;-83
2022/10/03 11:01:34;;;;;;;0.10;0.00;;;18.70;99.90;;;;;;5091630;28;20446;-83
2022/10/03 11:04:51;;;;;;;0.10;0.00;;;19.20;99.90;;;;;;5087392;28;20469;-84
2022/10/03 11:08:05;;;;;;;0.10;0.00;;;19.10;99.90;;;;;;5083611;28;20451;-84
2022/10/03 11:10:57;;;;;;;0.10;0.00;;;19.20;99.90;;;;;;5072236;28;20447;-82
2022/10/03 11:13:56;;;;;;;0.10;0.00;;;19.20;99.90;;;;;;5097354;28;20443;-84
2022/10/03 11:16:52;;;;;;;0.10;0.00;;;18.50;99.90;;;;;;5090055;28;20930;-85
2022/10/03 11:19:18;;;;;;;0.10;0.00;;;18.10;99.90;;;;;;5078847;28;20844;-84
2022/10/03 11:22:08;;;;;;;0.10;0.00;;;18.30;99.90;;;;;;5078307;28;20434;-85
2022/10/03 11:25:06;;;;;;;0.10;0.00;;;19.00;99.90;;;;;;5081791;28;20217;-84
2022/10/03 11:28:03;;;;;;;0.10;0.00;;;19.60;99.90;;;;;;5071487;28;21078;-84
2022/10/03 11:31:06;;;;;;;0.10;0.00;;;20.20;99.90;;;;;;5087346;28;20878;-84
2022/10/03 11:34:03;;;;;;;0.10;0.00;;;20.30;99.90;;;;;;5076728;28;20793;-85
2022/10/03 11:37:16;;;;;;;0.10;0.00;;;21.00;99.90;;;;;;5085938;28;20972;-85
2022/10/03 11:39:50;;;;;;;0.10;0.00;;;20.90;99.90;;;;;;4979552;28;20448;-83
2022/10/03 11:42:49;;;;;;;0.10;0.00;;;21.70;99.90;;;;;;4985746;28;20459;-84
2022/10/03 11:45:25;;;;;;;0.10;0.00;;;21.90;99.90;;;;;;5067542;28;20870;-84
2022/10/03 11:48:12;;;;;;;0.10;0.00;;;22.00;99.90;;;;;;5087596;28;20500;-84
2022/10/03 11:51:01;;;;;;;0.10;0.00;;;23.00;99.90;;;;;;5069026;28;20507;-83
2022/10/03 11:53:36;;;;;;;0.10;0.00;;;23.00;99.90;;;;;;5054886;28;20534;-84
2022/10/03 11:56:11;;;;;;;0.10;0.00;;;22.80;99.90;;;;;;5069033;28;20420;-84
2022/10/03 11:59:02;;;;;;;0.10;0.00;;;21.20;99.90;;;;;;5094288;28;20449;-84
2022/10/03 12:01:42;;;;;;;0.10;0.00;;;19.90;99.90;;;;;;5088166;28;20439;-85
2022/10/03 12:04:40;;;;;;;0.10;0.07;;;19.20;99.90;;;;;;5083633;28;20868;-85
2022/10/03 12:10:06;;;;;;;0.10;0.00;;;20.40;99.90;;;;;;5085785;28;20441;-86
2022/10/03 12:12:44;;;;;;;0.10;0.00;;;21.20;99.90;;;;;;5084303;28;20435;-84
2022/10/03 12:15:30;;;;;;;0.10;0.00;;;21.60;99.90;;;;;;5065587;28;20477;-85
2022/10/03 12:18:09;;;;;;;0.10;0.00;;;22.70;99.90;;;;;;5079321;28;20439;-85
2022/10/03 12:21:02;;;;;;;0.10;0.00;;;22.20;99.90;;;;;;5083792;28;20443;-84
2022/10/03 12:24:12;;;;;;;0.10;0.00;;;21.20;99.90;;;;;;5086234;28;20446;-84
2022/10/03 12:26:52;;;;;;;0.10;0.00;;;21.20;99.90;;;;;;5084834;28;20443;-84
2022/10/03 12:29:20;;;;;;;0.10;0.00;;;20.50;99.90;;;;;;5081323;28;20930;-84
2022/10/03 12:32:16;;;;;;;0.10;0.00;;;20.40;99.90;;;;;;5082673;28;20454;-83
2022/10/03 12:35:03;;;;;;;0.07;0.00;;;19.60;99.90;;;;;;5061363;28;20442;-83
2022/10/03 12:38:13;;;;;;;0.10;0.00;;;20.40;99.90;;;;;;5081862;28;20439;-84
2022/10/03 12:40:46;;;;;;;0.10;0.00;;;20.40;99.90;;;;;;5026815;28;20439;-83
2022/10/03 12:43:39;;;;;;;0.00;0.00;;;20.10;99.90;;;;;;5085205;28;20504;-84
2022/10/03 12:46:25;;;;;;;0.00;0.00;;;20.60;99.90;;;;;;5055658;28;20452;-85
2022/10/03 12:49:00;;;;;;;0.07;0.00;;;21.60;99.90;;;;;;5073802;28;20451;-85
2022/10/03 12:51:55;;;;;;;0.10;0.00;;;21.60;99.90;;;;;;5082134;28;20481;-86
2022/10/03 12:54:50;;;;;;;0.10;0.00;;;20.60;99.90;;;;;;5061290;28;20577;-85
2022/10/03 12:57:37;;;;;;;0.00;0.00;;;19.70;99.90;;;;;;5092221;28;20458;-85
2022/10/03 13:00:27;;;;;;;0.00;0.00;;;19.80;99.90;;;;;;5065554;28;20454;-84
2022/10/03 13:03:04;;;;;;;0.00;0.00;;;19.80;99.90;;;;;;5086627;28;20446;-83
2022/10/03 13:05:55;;;;;;;0.00;0.00;;;19.30;99.90;;;;;;5083317;28;20936;-84
2022/10/03 13:08:42;;;;;;;0.00;0.00;;;18.40;99.90;;;;;;5079793;28;20446;-84
2022/10/03 13:11:34;;;;;;;0.00;0.00;;;18.50;99.90;;;;;;5077601;28;20452;-82
2022/10/03 13:14:29;;;;;;;0.10;0.00;;;18.90;99.90;;;;;;5032791;28;20474;-82
2022/10/03 13:17:10;;;;;;;0.10;0.10;;;18.80;99.90;;;;;;5083489;28;20471;-82
2022/10/03 13:20:05;;;;;;;0.10;0.00;;;18.50;99.90;;;;;;5075918;28;20442;-82
2022/10/03 13:22:45;;;;;;;0.00;0.00;;;18.20;99.90;;;;;;5077541;28;20958;-83
2022/10/03 13:25:21;;;;;;;0.03;0.00;;;18.50;99.90;;;;;;5079855;28;21008;-83
2022/10/03 13:28:05;;;;;;;0.00;0.00;;;20.10;99.90;;;;;;5074987;28;20422;-83
2022/10/03 13:30:42;;;;;;;0.00;0.00;;;19.70;99.90;;;;;;5103597;28;20551;-84
2022/10/03 13:33:21;;;;;;;0.00;0.00;;;18.60;99.90;;;;;;5106429;28;20575;-84
2022/10/03 13:36:08;;;;;;;0.00;0.00;;;18.60;99.90;;;;;;5098948;28;20446;-84
2022/10/03 13:38:54;;;;;;;0.00;0.00;;;18.60;99.90;;;;;;5079656;28;20859;-83
2022/10/03 13:41:41;;;;;;;0.00;0.00;;;18.40;99.90;;;;;;5090763;28;20457;-81
2022/10/03 13:44:15;;;;;;;0.00;0.00;;;19.70;99.90;;;;;;5096246;28;20475;-82
2022/10/03 13:46:55;;;;;;;0.00;0.00;;;20.60;99.90;;;;;;5079234;28;20444;-82
2022/10/03 13:49:37;;;;;;;0.10;0.00;;;21.40;99.90;;;;;;5077184;28;20869;-82
2022/10/03 13:52:26;;;;;;;0.03;0.00;;;22.30;99.90;;;;;;5086278;28;20447;-82
2022/10/03 13:55:18;;;;;;;0.10;0.00;;;21.60;99.90;;;;;;5089220;28;20438;-82
2022/10/03 13:58:16;;;;;;;0.10;0.00;;;22.90;99.90;;;;;;5087337;28;20450;-82
2022/10/03 14:01:00;;;;;;;0.10;0.00;;;22.70;99.90;;;;;;5089038;28;20435;-82
2022/10/03 14:03:32;;;;;;;0.10;0.00;;;21.10;99.90;;;;;;5086663;28;20438;-81
2022/10/03 14:06:28;;;;;;;0.07;0.00;;;21.20;99.90;;;;;;5070776;28;21020;-82
2022/10/03 14:09:07;;;;;;;0.07;0.00;;;20.50;99.90;;;;;;5088364;28;20439;-82
2022/10/03 14:11:55;;;;;;;0.00;0.00;;;21.10;99.90;;;;;;5084121;28;21260;-82
2022/10/03 14:14:49;;;;;;;0.00;0.00;;;21.10;99.90;;;;;;5104642;28;21264;-83
2022/10/03 14:17:37;;;;;;;0.00;0.00;;;19.70;99.90;;;;;;5086815;28;20445;-82
2022/10/03 14:20:24;;;;;;;0.10;0.10;;;18.90;99.90;;;;;;5072442;28;20504;-82
2022/10/03 14:23:08;;;;;;;0.00;0.00;;;18.50;99.90;;;;;;5076681;28;20435;-82
2022/10/03 14:25:56;;;;;;;0.07;0.07;;;18.20;99.90;;;;;;5085524;28;20482;-81
2022/10/03 14:28:40;;;;;;;0.00;0.00;;;18.10;99.90;;;;;;5087391;28;20841;-81
2022/10/03 14:31:16;;;;;;;0.00;0.00;;;18.00;99.90;;;;;;5064856;28;20449;-81
2022/10/03 14:33:57;;;;;;;0.00;0.00;;;17.70;99.90;;;;;;5077183;28;20451;-80
2022/10/03 14:36:59;;;;;;;0.10;0.10;;;17.60;99.90;;;;;;5082105;28;20439;-80
2022/10/03 14:39:42;;;;;;;0.10;0.10;;;17.50;99.90;;;;;;5084185;28;21660;-80
2022/10/03 14:42:53;;;;;;;0.10;0.10;;;17.30;99.90;;;;;;5085173;28;20449;-80
2022/10/03 14:45:28;;;;;;;0.10;0.10;;;17.20;99.90;;;;;;4964685;28;20516;-82
2022/10/03 14:48:04;;;;;;;0.10;0.10;;;17.10;99.90;;;;;;5060756;28;20481;-82